sensor_id;sensor_type;location;lat;lon;timestamp;temperature;humidity
25918;DHT22;13899;51.174;4.456;2023-03-05T00:01:26;9.00;99.90
25918;DHT22;13899;51.174;4.456;2023-03-05T00:03:54;9.10;99.90
25918;DHT22;13899;51.174;4.456;2023-03-05T00:06:24;9.30;99.90
25918;DHT22;13899;51.174;4.456;2023-03-05T00:08:53;9.30;99.90
25918;DHT22;13899;51.174;4.456;2023-03-05T00:11:25;9.40;99.90
25918;DHT22;13899;51.174;4.456;2023-03-05T00:13:55;9.20;99.90
25918;DHT22;13899;51.174;4.456;2023-03-05T00:16:22;9.30;99.90
25918;DHT22;13899;51.174;4.456;2023-03-05T00:18:52;9.70;99.90
25918;DHT22;13899;51.174;4.456;2023-03-05T00:21:22;9.00;99.90
25918;DHT22;13899;51.174;4.456;2023-03-05T00:23:49;8.50;99.90
25918;DHT22;13899;51.174;4.456;2023-03-05T00:26:19;8.40;99.90
25918;DHT22;13899;51.174;4.456;2023-03-05T00:28:47;8.50;99.90
25918;DHT22;13899;51.174;4.456;2023-03-05T00:31:19;8.70;99.90
25918;DHT22;13899;51.174;4.456;2023-03-05T00:33:45;8.90;99.90
25918;DHT22;13899;51.174;4.456;2023-03-05T00:36:11;8.90;99.90
25918;DHT22;13899;51.174;4.456;2023-03-05T00:38:38;9.10;99.90
25918;DHT22;13899;51.174;4.456;2023-03-05T00:41:05;9.00;99.90
25918;DHT22;13899;51.174;4.456;2023-03-05T00:43:30;8.90;99.90
25918;DHT22;13899;51.174;4.456;2023-03-05T00:45:56;8.90;99.90
25918;DHT22;13899;51.174;4.456;2023-03-05T00:48:21;9.00;99.90
25918;DHT22;13899;51.174;4.456;2023-03-05T00:50:51;8.90;99.90
25918;DHT22;13899;51.174;4.456;2023-03-05T00:53:22;8.90;99.90
25918;DHT22;13899;51.174;4.456;2023-03-05T00:55:49;8.90;99.90
25918;DHT22;13899;51.174;4.456;2023-03-05T00:58:14;9.10;99.90
25918;DHT22;13899;51.174;4.456;2023-03-05T01:00:40;9.30;99.90
25918;DHT22;13899;51.174;4.456;2023-03-05T01:03:05;9.30;99.90
25918;DHT22;13899;51.174;4.456;2023-03-05T01:05:32;9.30;99.90
25918;DHT22;13899;51.174;4.456;2023-03-05T01:07:58;9.10;99.90
25918;DHT22;13899;51.174;4.456;2023-03-05T01:10:24;8.80;99.90
25918;DHT22;13899;51.174;4.456;2023-03-05T01:12:56;9.00;99.90
25918;DHT22;13899;51.174;4.456;2023-03-05T01:15:22;9.10;99.90
25918;DHT22;13899;51.174;4.456;2023-03-05T01:17:48;9.20;99.90
25918;DHT22;13899;51.174;4.456;2023-03-05T01:20:16;9.00;99.90
25918;DHT22;13899;51.174;4.456;2023-03-05T01:22:43;9.20;99.90
25918;DHT22;13899;51.174;4.456;2023-03-05T01:25:09;9.20;99.90
25918;DHT22;13899;51.174;4.456;2023-03-05T01:27:35;9.50;99.90
25918;DHT22;13899;51.174;4.456;2023-03-05T01:30:01;9.70;99.90
25918;DHT22;13899;51.174;4.456;2023-03-05T01:32:29;9.60;99.90
25918;DHT22;13899;51.174;4.456;2023-03-05T01:34:55;9.40;99.90
25918;DHT22;13899;51.174;4.456;2023-03-05T01:37:21;9.60;99.90
25918;DHT22;13899;51.174;4.456;2023-03-05T01:39:47;9.50;99.90
25918;DHT22;13899;51.174;4.456;2023-03-05T01:42:12;9.30;99.90
25918;DHT22;13899;51.174;4.456;2023-03-05T01:44:38;9.40;99.90
25918;DHT22;13899;51.174;4.456;2023-03-05T01:47:04;9.50;99.90
25918;DHT22;13899;51.174;4.456;2023-03-05T01:49:38;9.40;99.90
25918;DHT22;13899;51.174;4.456;2023-03-05T01:52:19;9.30;99.90
25918;DHT22;13899;51.174;4.456;2023-03-05T01:54:56;9.10;99.90
25918;DHT22;13899;51.174;4.456;2023-03-05T01:57:35;9.10;99.90
25918;DHT22;13899;51.174;4.456;2023-03-05T02:02:43;8.90;99.90
25918;DHT22;13899;51.174;4.456;2023-03-05T02:05:14;9.10;99.90
25918;DHT22;13899;51.174;4.456;2023-03-05T02:07:44;9.30;99.90
25918;DHT22;13899;51.174;4.456;2023-03-05T02:10:24;9.30;99.90
25918;DHT22;13899;51.174;4.456;2023-03-05T02:12:53;9.60;99.90
25918;DHT22;13899;51.174;4.456;2023-03-05T02:15:23;9.20;99.90
25918;DHT22;13899;51.174;4.456;2023-03-05T02:17:56;8.80;99.90
25918;DHT22;13899;51.174;4.456;2023-03-05T02:20:25;8.90;99.90
25918;DHT22;13899;51.174;4.456;2023-03-05T02:22:53;9.00;99.90
25918;DHT22;13899;51.174;4.456;2023-03-05T02:25:28;8.60;99.90
25918;DHT22;13899;51.174;4.456;2023-03-05T02:28:01;8.50;99.90
25918;DHT22;13899;51.174;4.456;2023-03-05T02:30:41;8.60;99.90
25918;DHT22;13899;51.174;4.456;2023-03-05T02:33:06;8.70;99.90
25918;DHT22;13899;51.174;4.456;2023-03-05T02:35:32;8.50;99.90
25918;DHT22;13899;51.174;4.456;2023-03-05T02:37:58;8.60;99.90
25918;DHT22;13899;51.174;4.456;2023-03-05T02:40:24;8.40;99.90
25918;DHT22;13899;51.174;4.456;2023-03-05T02:42:50;8.50;99.90
25918;DHT22;13899;51.174;4.456;2023-03-05T02:45:16;8.60;99.90
25918;DHT22;13899;51.174;4.456;2023-03-05T02:47:42;8.60;99.90
25918;DHT22;13899;51.174;4.456;2023-03-05T02:50:10;8.70;99.90
25918;DHT22;13899;51.174;4.456;2023-03-05T02:52:37;8.20;99.90
25918;DHT22;13899;51.174;4.456;2023-03-05T02:55:04;7.80;99.90
25918;DHT22;13899;51.174;4.456;2023-03-05T02:57:31;8.10;99.90
25918;DHT22;13899;51.174;4.456;2023-03-05T03:00:00;8.00;99.90
25918;DHT22;13899;51.174;4.456;2023-03-05T03:02:26;7.80;99.90
25918;DHT22;13899;51.174;4.456;2023-03-05T03:04:53;7.40;99.90
25918;DHT22;13899;51.174;4.456;2023-03-05T03:07:19;7.80;99.90
25918;DHT22;13899;51.174;4.456;2023-03-05T03:09:48;7.90;99.90
25918;DHT22;13899;51.174;4.456;2023-03-05T03:12:21;7.90;99.90
25918;DHT22;13899;51.174;4.456;2023-03-05T03:14:53;7.80;99.90
25918;DHT22;13899;51.174;4.456;2023-03-05T03:17:19;8.20;99.90
25918;DHT22;13899;51.174;4.456;2023-03-05T03:19:46;7.70;99.90
25918;DHT22;13899;51.174;4.456;2023-03-05T03:22:14;7.80;99.90
25918;DHT22;13899;51.174;4.456;2023-03-05T03:24:41;7.80;99.90
25918;DHT22;13899;51.174;4.456;2023-03-05T03:27:07;7.80;99.90
25918;DHT22;13899;51.174;4.456;2023-03-05T03:29:35;7.90;99.90
25918;DHT22;13899;51.174;4.456;2023-03-05T03:32:01;7.70;99.90
25918;DHT22;13899;51.174;4.456;2023-03-05T03:34:30;7.80;99.90
25918;DHT22;13899;51.174;4.456;2023-03-05T03:36:55;7.90;99.90
25918;DHT22;13899;51.174;4.456;2023-03-05T03:39:21;7.80;99.90
25918;DHT22;13899;51.174;4.456;2023-03-05T03:41:50;7.10;99.90
25918;DHT22;13899;51.174;4.456;2023-03-05T03:44:17;7.40;99.90
25918;DHT22;13899;51.174;4.456;2023-03-05T03:46:46;7.40;99.90
25918;DHT22;13899;51.174;4.456;2023-03-05T03:49:18;7.30;99.90
25918;DHT22;13899;51.174;4.456;2023-03-05T03:51:44;7.00;99.90
25918;DHT22;13899;51.174;4.456;2023-03-05T03:54:10;7.10;99.90
25918;DHT22;13899;51.174;4.456;2023-03-05T03:56:37;6.70;99.90
25918;DHT22;13899;51.174;4.456;2023-03-05T03:59:03;6.70;99.90
25918;DHT22;13899;51.174;4.456;2023-03-05T04:01:29;6.80;99.90
25918;DHT22;13899;51.174;4.456;2023-03-05T04:03:58;7.10;99.90
25918;DHT22;13899;51.174;4.456;2023-03-05T04:06:25;7.20;99.90
25918;DHT22;13899;51.174;4.456;2023-03-05T04:08:52;7.50;99.90
25918;DHT22;13899;51.174;4.456;2023-03-05T04:11:18;7.30;99.90
25918;DHT22;13899;51.174;4.456;2023-03-05T04:13:45;6.80;99.90
25918;DHT22;13899;51.174;4.456;2023-03-05T04:16:12;6.60;99.90
25918;DHT22;13899;51.174;4.456;2023-03-05T04:18:37;5.90;99.90
25918;DHT22;13899;51.174;4.456;2023-03-05T04:21:06;5.70;99.90
25918;DHT22;13899;51.174;4.456;2023-03-05T04:23:37;5.70;99.90
25918;DHT22;13899;51.174;4.456;2023-03-05T04:26:04;5.90;99.90
25918;DHT22;13899;51.174;4.456;2023-03-05T04:28:30;6.20;99.90
25918;DHT22;13899;51.174;4.456;2023-03-05T04:30:56;6.40;99.90
25918;DHT22;13899;51.174;4.456;2023-03-05T04:33:22;6.80;99.90
25918;DHT22;13899;51.174;4.456;2023-03-05T04:35:52;7.00;99.90
25918;DHT22;13899;51.174;4.456;2023-03-05T04:38:19;7.50;99.90
25918;DHT22;13899;51.174;4.456;2023-03-05T04:40:45;7.70;99.90
25918;DHT22;13899;51.174;4.456;2023-03-05T04:43:11;7.60;99.90
25918;DHT22;13899;51.174;4.456;2023-03-05T04:45:41;7.30;99.90
25918;DHT22;13899;51.174;4.456;2023-03-05T04:48:07;7.30;99.90
25918;DHT22;13899;51.174;4.456;2023-03-05T04:50:33;6.70;99.90
25918;DHT22;13899;51.174;4.456;2023-03-05T04:52:59;6.80;99.90
25918;DHT22;13899;51.174;4.456;2023-03-05T04:55:25;6.70;99.90
25918;DHT22;13899;51.174;4.456;2023-03-05T04:57:51;6.90;99.90
25918;DHT22;13899;51.174;4.456;2023-03-05T05:00:17;7.30;99.90
25918;DHT22;13899;51.174;4.456;2023-03-05T05:02:46;7.60;99.90
25918;DHT22;13899;51.174;4.456;2023-03-05T05:05:14;7.70;99.90
25918;DHT22;13899;51.174;4.456;2023-03-05T05:07:40;7.90;99.90
25918;DHT22;13899;51.174;4.456;2023-03-05T05:10:08;8.30;99.90
25918;DHT22;13899;51.174;4.456;2023-03-05T05:12:35;8.20;99.90
25918;DHT22;13899;51.174;4.456;2023-03-05T05:15:04;7.40;99.90
25918;DHT22;13899;51.174;4.456;2023-03-05T05:17:30;7.20;99.90
25918;DHT22;13899;51.174;4.456;2023-03-05T05:19:59;7.50;99.90
25918;DHT22;13899;51.174;4.456;2023-03-05T05:22:27;7.50;99.90
25918;DHT22;13899;51.174;4.456;2023-03-05T05:24:54;7.80;99.90
25918;DHT22;13899;51.174;4.456;2023-03-05T05:27:20;7.20;99.90
25918;DHT22;13899;51.174;4.456;2023-03-05T05:29:46;7.50;99.90
25918;DHT22;13899;51.174;4.456;2023-03-05T05:32:19;7.50;99.90
25918;DHT22;13899;51.174;4.456;2023-03-05T05:34:45;6.70;99.90
25918;DHT22;13899;51.174;4.456;2023-03-05T05:37:13;6.70;99.90
25918;DHT22;13899;51.174;4.456;2023-03-05T05:39:41;7.00;99.90
25918;DHT22;13899;51.174;4.456;2023-03-05T05:42:18;7.50;99.90
25918;DHT22;13899;51.174;4.456;2023-03-05T05:44:43;8.00;99.90
25918;DHT22;13899;51.174;4.456;2023-03-05T05:47:09;7.90;99.90
25918;DHT22;13899;51.174;4.456;2023-03-05T05:49:37;7.90;99.90
25918;DHT22;13899;51.174;4.456;2023-03-05T05:52:03;8.10;99.90
25918;DHT22;13899;51.174;4.456;2023-03-05T05:54:30;8.10;99.90
25918;DHT22;13899;51.174;4.456;2023-03-05T05:56:57;8.30;99.90
25918;DHT22;13899;51.174;4.456;2023-03-05T05:59:28;8.10;99.90
25918;DHT22;13899;51.174;4.456;2023-03-05T06:01:56;8.00;99.90
25918;DHT22;13899;51.174;4.456;2023-03-05T06:04:36;8.00;99.90
25918;DHT22;13899;51.174;4.456;2023-03-05T06:07:04;7.80;99.90
25918;DHT22;13899;51.174;4.456;2023-03-05T06:09:31;8.00;99.90
25918;DHT22;13899;51.174;4.456;2023-03-05T06:11:59;8.30;99.90
25918;DHT22;13899;51.174;4.456;2023-03-05T06:14:26;8.00;99.90
25918;DHT22;13899;51.174;4.456;2023-03-05T06:17:02;7.80;99.90
25918;DHT22;13899;51.174;4.456;2023-03-05T06:19:37;8.10;99.90
25918;DHT22;13899;51.174;4.456;2023-03-05T06:22:02;7.90;99.90
25918;DHT22;13899;51.174;4.456;2023-03-05T06:24:32;7.70;99.90
25918;DHT22;13899;51.174;4.456;2023-03-05T06:26:58;7.30;99.90
25918;DHT22;13899;51.174;4.456;2023-03-05T06:29:35;7.00;99.90
25918;DHT22;13899;51.174;4.456;2023-03-05T06:32:10;6.40;99.90
25918;DHT22;13899;51.174;4.456;2023-03-05T06:34:57;5.70;99.90
25918;DHT22;13899;51.174;4.456;2023-03-05T06:37:46;5.60;99.90
25918;DHT22;13899;51.174;4.456;2023-03-05T06:40:37;5.90;99.90
25918;DHT22;13899;51.174;4.456;2023-03-05T06:43:07;5.80;99.90
25918;DHT22;13899;51.174;4.456;2023-03-05T06:46:05;6.00;99.90
25918;DHT22;13899;51.174;4.456;2023-03-05T06:49:09;6.10;99.90
25918;DHT22;13899;51.174;4.456;2023-03-05T06:51:40;6.30;99.90
25918;DHT22;13899;51.174;4.456;2023-03-05T06:54:12;6.20;99.90
25918;DHT22;13899;51.174;4.456;2023-03-05T06:56:40;5.90;99.90
25918;DHT22;13899;51.174;4.456;2023-03-05T06:59:07;6.00;99.90
25918;DHT22;13899;51.174;4.456;2023-03-05T07:01:33;5.80;99.90
25918;DHT22;13899;51.174;4.456;2023-03-05T07:03:59;5.90;99.90
25918;DHT22;13899;51.174;4.456;2023-03-05T07:06:30;6.50;99.90
25918;DHT22;13899;51.174;4.456;2023-03-05T07:11:35;7.10;99.90
25918;DHT22;13899;51.174;4.456;2023-03-05T07:14:02;7.30;99.90
25918;DHT22;13899;51.174;4.456;2023-03-05T07:16:31;7.20;99.90
25918;DHT22;13899;51.174;4.456;2023-03-05T07:19:02;7.10;99.90
25918;DHT22;13899;51.174;4.456;2023-03-05T07:21:32;6.50;99.90
25918;DHT22;13899;51.174;4.456;2023-03-05T07:24:00;6.70;99.90
25918;DHT22;13899;51.174;4.456;2023-03-05T07:26:27;6.70;99.90
25918;DHT22;13899;51.174;4.456;2023-03-05T07:29:28;6.70;99.90
25918;DHT22;13899;51.174;4.456;2023-03-05T07:32:16;6.80;99.90
25918;DHT22;13899;51.174;4.456;2023-03-05T07:34:47;7.40;99.90
25918;DHT22;13899;51.174;4.456;2023-03-05T07:37:14;7.60;99.90
25918;DHT22;13899;51.174;4.456;2023-03-05T07:39:40;7.20;99.90
25918;DHT22;13899;51.174;4.456;2023-03-05T07:42:15;7.20;99.90
25918;DHT22;13899;51.174;4.456;2023-03-05T07:45:14;7.40;99.90
25918;DHT22;13899;51.174;4.456;2023-03-05T07:48:25;6.80;99.90
25918;DHT22;13899;51.174;4.456;2023-03-05T07:51:16;6.50;99.90
25918;DHT22;13899;51.174;4.456;2023-03-05T07:53:50;6.80;99.90
25918;DHT22;13899;51.174;4.456;2023-03-05T07:56:41;7.20;99.90
25918;DHT22;13899;51.174;4.456;2023-03-05T07:59:10;7.60;99.90
25918;DHT22;13899;51.174;4.456;2023-03-05T08:01:49;6.90;99.90
25918;DHT22;13899;51.174;4.456;2023-03-05T08:04:23;7.20;99.90
25918;DHT22;13899;51.174;4.456;2023-03-05T08:07:07;7.30;99.90
25918;DHT22;13899;51.174;4.456;2023-03-05T08:09:33;7.40;99.90
25918;DHT22;13899;51.174;4.456;2023-03-05T08:12:14;7.30;99.90
25918;DHT22;13899;51.174;4.456;2023-03-05T08:15:32;7.10;99.90
25918;DHT22;13899;51.174;4.456;2023-03-05T08:18:44;6.50;99.90
25918;DHT22;13899;51.174;4.456;2023-03-05T08:21:23;6.60;99.90
25918;DHT22;13899;51.174;4.456;2023-03-05T08:23:52;6.20;99.90
25918;DHT22;13899;51.174;4.456;2023-03-05T08:26:41;6.30;99.90
25918;DHT22;13899;51.174;4.456;2023-03-05T08:29:27;6.50;99.90
25918;DHT22;13899;51.174;4.456;2023-03-05T08:31:53;6.70;99.90
25918;DHT22;13899;51.174;4.456;2023-03-05T08:34:22;7.10;99.90
25918;DHT22;13899;51.174;4.456;2023-03-05T08:40:00;7.50;99.90
25918;DHT22;13899;51.174;4.456;2023-03-05T08:42:25;7.70;99.90
25918;DHT22;13899;51.174;4.456;2023-03-05T08:44:51;7.30;99.90
25918;DHT22;13899;51.174;4.456;2023-03-05T08:47:17;7.60;99.90
25918;DHT22;13899;51.174;4.456;2023-03-05T08:49:43;8.00;99.90
25918;DHT22;13899;51.174;4.456;2023-03-05T08:52:09;7.50;99.90
25918;DHT22;13899;51.174;4.456;2023-03-05T08:54:36;7.70;99.90
25918;DHT22;13899;51.174;4.456;2023-03-05T08:57:04;6.80;99.90
25918;DHT22;13899;51.174;4.456;2023-03-05T08:59:29;6.60;99.90
25918;DHT22;13899;51.174;4.456;2023-03-05T09:02:00;6.60;99.90
25918;DHT22;13899;51.174;4.456;2023-03-05T09:04:25;6.40;99.90
25918;DHT22;13899;51.174;4.456;2023-03-05T09:06:51;7.10;99.90
25918;DHT22;13899;51.174;4.456;2023-03-05T09:09:17;6.90;99.90
25918;DHT22;13899;51.174;4.456;2023-03-05T09:11:45;6.80;99.90
25918;DHT22;13899;51.174;4.456;2023-03-05T09:14:11;6.70;99.90
25918;DHT22;13899;51.174;4.456;2023-03-05T09:16:37;7.00;99.90
25918;DHT22;13899;51.174;4.456;2023-03-05T09:19:27;6.60;99.90
25918;DHT22;13899;51.174;4.456;2023-03-05T09:21:58;6.60;99.90
25918;DHT22;13899;51.174;4.456;2023-03-05T09:24:23;6.20;99.90
25918;DHT22;13899;51.174;4.456;2023-03-05T09:26:56;6.30;99.90
25918;DHT22;13899;51.174;4.456;2023-03-05T09:29:49;6.30;99.90
25918;DHT22;13899;51.174;4.456;2023-03-05T09:32:15;6.60;99.90
25918;DHT22;13899;51.174;4.456;2023-03-05T09:34:40;6.80;99.90
25918;DHT22;13899;51.174;4.456;2023-03-05T09:37:07;7.00;99.90
25918;DHT22;13899;51.174;4.456;2023-03-05T09:39:33;7.60;99.90
25918;DHT22;13899;51.174;4.456;2023-03-05T09:45:20;7.50;99.90
25918;DHT22;13899;51.174;4.456;2023-03-05T09:48:15;8.20;99.90
25918;DHT22;13899;51.174;4.456;2023-03-05T09:51:01;8.70;99.90
25918;DHT22;13899;51.174;4.456;2023-03-05T09:53:47;8.70;99.90
25918;DHT22;13899;51.174;4.456;2023-03-05T09:56:18;8.80;99.90
25918;DHT22;13899;51.174;4.456;2023-03-05T09:59:04;8.70;99.90
25918;DHT22;13899;51.174;4.456;2023-03-05T10:01:41;8.40;99.90
25918;DHT22;13899;51.174;4.456;2023-03-05T10:04:18;7.90;99.90
25918;DHT22;13899;51.174;4.456;2023-03-05T10:10:09;7.60;99.90
25918;DHT22;13899;51.174;4.456;2023-03-05T10:12:40;7.90;99.90
25918;DHT22;13899;51.174;4.456;2023-03-05T10:15:21;7.80;99.90
25918;DHT22;13899;51.174;4.456;2023-03-05T10:18:27;8.00;99.90
25918;DHT22;13899;51.174;4.456;2023-03-05T10:21:12;8.10;99.90
25918;DHT22;13899;51.174;4.456;2023-03-05T10:24:09;8.70;99.90
25918;DHT22;13899;51.174;4.456;2023-03-05T10:43:18;9.00;99.90
25918;DHT22;13899;51.174;4.456;2023-03-05T10:45:49;9.50;99.90
25918;DHT22;13899;51.174;4.456;2023-03-05T10:48:32;10.20;99.90
25918;DHT22;13899;51.174;4.456;2023-03-05T10:51:07;10.60;99.90
25918;DHT22;13899;51.174;4.456;2023-03-05T10:56:05;11.10;99.90
25918;DHT22;13899;51.174;4.456;2023-03-05T10:58:31;11.10;99.90
25918;DHT22;13899;51.174;4.456;2023-03-05T11:01:03;10.30;99.90
25918;DHT22;13899;51.174;4.456;2023-03-05T11:03:57;10.40;99.90
25918;DHT22;13899;51.174;4.456;2023-03-05T11:06:39;10.60;99.90
25918;DHT22;13899;51.174;4.456;2023-03-05T11:09:28;10.40;99.90
25918;DHT22;13899;51.174;4.456;2023-03-05T11:12:10;10.80;99.90
25918;DHT22;13899;51.174;4.456;2023-03-05T11:14:38;11.50;99.90
25918;DHT22;13899;51.174;4.456;2023-03-05T11:17:32;12.00;99.90
25918;DHT22;13899;51.174;4.456;2023-03-05T11:23:23;12.20;99.90
25918;DHT22;13899;51.174;4.456;2023-03-05T11:26:13;12.00;99.90
25918;DHT22;13899;51.174;4.456;2023-03-05T11:36:40;11.60;99.90
25918;DHT22;13899;51.174;4.456;2023-03-05T11:41:38;10.00;99.90
25918;DHT22;13899;51.174;4.456;2023-03-05T11:44:44;9.50;99.90
25918;DHT22;13899;51.174;4.456;2023-03-05T11:47:23;9.30;99.90
25918;DHT22;13899;51.174;4.456;2023-03-05T11:49:54;9.30;99.90
25918;DHT22;13899;51.174;4.456;2023-03-05T11:52:28;9.30;99.90
25918;DHT22;13899;51.174;4.456;2023-03-05T12:00:44;9.10;99.90
25918;DHT22;13899;51.174;4.456;2023-03-05T12:03:15;8.90;99.90
25918;DHT22;13899;51.174;4.456;2023-03-05T12:05:46;8.60;99.90
25918;DHT22;13899;51.174;4.456;2023-03-05T12:08:19;8.30;99.90
25918;DHT22;13899;51.174;4.456;2023-03-05T12:10:46;8.60;99.90
25918;DHT22;13899;51.174;4.456;2023-03-05T12:13:27;8.80;99.90
25918;DHT22;13899;51.174;4.456;2023-03-05T12:16:19;8.30;99.90
25918;DHT22;13899;51.174;4.456;2023-03-05T12:19:22;8.30;99.90
25918;DHT22;13899;51.174;4.456;2023-03-05T12:21:51;8.50;99.90
25918;DHT22;13899;51.174;4.456;2023-03-05T12:26:55;8.30;99.90
25918;DHT22;13899;51.174;4.456;2023-03-05T12:29:47;8.60;99.90
25918;DHT22;13899;51.174;4.456;2023-03-05T12:53:09;9.90;99.90
25918;DHT22;13899;51.174;4.456;2023-03-05T13:07:03;9.60;99.90
25918;DHT22;13899;51.174;4.456;2023-03-05T13:09:31;9.20;99.90
25918;DHT22;13899;51.174;4.456;2023-03-05T13:12:00;9.20;99.90
25918;DHT22;13899;51.174;4.456;2023-03-05T13:14:54;9.10;99.90
25918;DHT22;13899;51.174;4.456;2023-03-05T13:17:30;9.10;99.90
25918;DHT22;13899;51.174;4.456;2023-03-05T13:19:57;9.60;99.90
25918;DHT22;13899;51.174;4.456;2023-03-05T13:22:23;10.10;99.90
25918;DHT22;13899;51.174;4.456;2023-03-05T13:25:05;9.90;99.90
25918;DHT22;13899;51.174;4.456;2023-03-05T13:27:34;9.50;99.90
25918;DHT22;13899;51.174;4.456;2023-03-05T13:30:00;9.40;99.90
25918;DHT22;13899;51.174;4.456;2023-03-05T13:32:28;9.80;99.90
25918;DHT22;13899;51.174;4.456;2023-03-05T13:34:56;9.90;99.90
25918;DHT22;13899;51.174;4.456;2023-03-05T13:37:28;9.90;99.90
25918;DHT22;13899;51.174;4.456;2023-03-05T13:40:02;8.90;99.90
25918;DHT22;13899;51.174;4.456;2023-03-05T13:42:33;8.90;99.90
25918;DHT22;13899;51.174;4.456;2023-03-05T13:45:02;9.20;99.90
25918;DHT22;13899;51.174;4.456;2023-03-05T13:47:31;9.00;99.90
25918;DHT22;13899;51.174;4.456;2023-03-05T13:50:01;8.80;99.90
25918;DHT22;13899;51.174;4.456;2023-03-05T13:52:32;8.90;99.90
25918;DHT22;13899;51.174;4.456;2023-03-05T13:54:59;8.50;99.90
25918;DHT22;13899;51.174;4.456;2023-03-05T13:57:40;8.40;99.90
25918;DHT22;13899;51.174;4.456;2023-03-05T14:00:28;8.90;99.90
25918;DHT22;13899;51.174;4.456;2023-03-05T14:02:57;8.90;99.90
25918;DHT22;13899;51.174;4.456;2023-03-05T14:05:23;8.80;99.90
25918;DHT22;13899;51.174;4.456;2023-03-05T14:07:50;9.30;99.90
25918;DHT22;13899;51.174;4.456;2023-03-05T14:10:39;10.00;99.90
25918;DHT22;13899;51.174;4.456;2023-03-05T14:13:13;10.30;99.90
25918;DHT22;13899;51.174;4.456;2023-03-05T14:15:41;10.30;99.90
25918;DHT22;13899;51.174;4.456;2023-03-05T14:18:18;10.10;99.90
25918;DHT22;13899;51.174;4.456;2023-03-05T14:23:44;10.00;99.90
25918;DHT22;13899;51.174;4.456;2023-03-05T14:26:29;10.20;99.90
25918;DHT22;13899;51.174;4.456;2023-03-05T14:28:58;9.30;99.90
25918;DHT22;13899;51.174;4.456;2023-03-05T14:31:25;9.40;99.90
25918;DHT22;13899;51.174;4.456;2023-03-05T14:33:51;9.10;99.90
25918;DHT22;13899;51.174;4.456;2023-03-05T14:36:23;9.10;99.90
25918;DHT22;13899;51.174;4.456;2023-03-05T14:38:51;9.70;99.90
25918;DHT22;13899;51.174;4.456;2023-03-05T14:41:20;10.00;99.90
25918;DHT22;13899;51.174;4.456;2023-03-05T14:43:47;10.10;99.90
25918;DHT22;13899;51.174;4.456;2023-03-05T14:46:12;9.30;99.90
25918;DHT22;13899;51.174;4.456;2023-03-05T14:48:38;8.50;99.90
25918;DHT22;13899;51.174;4.456;2023-03-05T14:51:04;8.50;99.90
25918;DHT22;13899;51.174;4.456;2023-03-05T14:53:38;8.80;99.90
25918;DHT22;13899;51.174;4.456;2023-03-05T14:58:41;9.60;99.90
25918;DHT22;13899;51.174;4.456;2023-03-05T15:01:08;9.60;99.90
25918;DHT22;13899;51.174;4.456;2023-03-05T15:03:34;9.30;99.90
25918;DHT22;13899;51.174;4.456;2023-03-05T15:06:00;9.10;99.90
25918;DHT22;13899;51.174;4.456;2023-03-05T15:08:28;8.90;99.90
25918;DHT22;13899;51.174;4.456;2023-03-05T15:10:54;8.50;99.90
25918;DHT22;13899;51.174;4.456;2023-03-05T15:13:20;8.40;99.90
25918;DHT22;13899;51.174;4.456;2023-03-05T15:15:47;8.40;99.90
25918;DHT22;13899;51.174;4.456;2023-03-05T15:18:14;8.40;99.90
25918;DHT22;13899;51.174;4.456;2023-03-05T15:20:40;8.60;99.90
25918;DHT22;13899;51.174;4.456;2023-03-05T15:23:06;8.30;99.90
25918;DHT22;13899;51.174;4.456;2023-03-05T15:25:32;8.50;99.90
25918;DHT22;13899;51.174;4.456;2023-03-05T15:27:57;8.50;99.90
25918;DHT22;13899;51.174;4.456;2023-03-05T15:32:52;8.00;99.90
25918;DHT22;13899;51.174;4.456;2023-03-05T15:35:18;7.80;99.90
25918;DHT22;13899;51.174;4.456;2023-03-05T15:37:44;7.90;99.90
25918;DHT22;13899;51.174;4.456;2023-03-05T15:40:10;7.70;99.90
25918;DHT22;13899;51.174;4.456;2023-03-05T15:42:36;7.70;99.90
25918;DHT22;13899;51.174;4.456;2023-03-05T15:45:02;7.80;99.90
25918;DHT22;13899;51.174;4.456;2023-03-05T15:47:27;8.20;99.90
25918;DHT22;13899;51.174;4.456;2023-03-05T15:49:53;8.50;99.90
25918;DHT22;13899;51.174;4.456;2023-03-05T15:52:18;8.50;99.90
25918;DHT22;13899;51.174;4.456;2023-03-05T15:54:44;8.70;99.90
25918;DHT22;13899;51.174;4.456;2023-03-05T15:57:10;8.90;99.90
25918;DHT22;13899;51.174;4.456;2023-03-05T15:59:36;8.70;99.90
25918;DHT22;13899;51.174;4.456;2023-03-05T16:02:03;8.80;99.90
25918;DHT22;13899;51.174;4.456;2023-03-05T16:04:29;9.00;99.90
25918;DHT22;13899;51.174;4.456;2023-03-05T16:06:56;9.20;99.90
25918;DHT22;13899;51.174;4.456;2023-03-05T16:09:25;9.20;99.90
25918;DHT22;13899;51.174;4.456;2023-03-05T16:11:54;9.20;99.90
25918;DHT22;13899;51.174;4.456;2023-03-05T16:14:23;9.10;99.90
25918;DHT22;13899;51.174;4.456;2023-03-05T16:16:50;9.10;99.90
25918;DHT22;13899;51.174;4.456;2023-03-05T16:19:18;9.10;99.90
25918;DHT22;13899;51.174;4.456;2023-03-05T16:21:44;8.40;99.90
25918;DHT22;13899;51.174;4.456;2023-03-05T16:24:10;8.20;99.90
25918;DHT22;13899;51.174;4.456;2023-03-05T16:26:37;8.10;99.90
25918;DHT22;13899;51.174;4.456;2023-03-05T16:29:05;8.30;99.90
25918;DHT22;13899;51.174;4.456;2023-03-05T16:31:31;7.80;99.90
25918;DHT22;13899;51.174;4.456;2023-03-05T16:33:58;7.70;99.90
25918;DHT22;13899;51.174;4.456;2023-03-05T16:36:29;7.80;99.90
25918;DHT22;13899;51.174;4.456;2023-03-05T16:39:02;7.80;99.90
25918;DHT22;13899;51.174;4.456;2023-03-05T16:41:28;8.10;99.90
25918;DHT22;13899;51.174;4.456;2023-03-05T16:43:54;8.40;99.90
25918;DHT22;13899;51.174;4.456;2023-03-05T16:46:27;8.40;99.90
25918;DHT22;13899;51.174;4.456;2023-03-05T16:48:55;8.50;99.90
25918;DHT22;13899;51.174;4.456;2023-03-05T16:51:21;8.50;99.90
25918;DHT22;13899;51.174;4.456;2023-03-05T16:53:47;8.20;99.90
25918;DHT22;13899;51.174;4.456;2023-03-05T16:56:19;7.60;99.90
25918;DHT22;13899;51.174;4.456;2023-03-05T16:58:49;7.30;99.90
25918;DHT22;13899;51.174;4.456;2023-03-05T17:01:19;6.90;99.90
25918;DHT22;13899;51.174;4.456;2023-03-05T17:03:45;7.20;99.90
25918;DHT22;13899;51.174;4.456;2023-03-05T17:06:17;7.40;99.90
25918;DHT22;13899;51.174;4.456;2023-03-05T17:08:44;7.50;99.90
25918;DHT22;13899;51.174;4.456;2023-03-05T17:11:10;7.70;99.90
25918;DHT22;13899;51.174;4.456;2023-03-05T17:13:36;7.40;99.90
25918;DHT22;13899;51.174;4.456;2023-03-05T17:16:03;7.50;99.90
25918;DHT22;13899;51.174;4.456;2023-03-05T17:18:29;7.70;99.90
25918;DHT22;13899;51.174;4.456;2023-03-05T17:20:55;7.70;99.90
25918;DHT22;13899;51.174;4.456;2023-03-05T17:23:21;7.70;99.90
25918;DHT22;13899;51.174;4.456;2023-03-05T17:25:47;7.30;99.90
25918;DHT22;13899;51.174;4.456;2023-03-05T17:28:12;7.40;99.90
25918;DHT22;13899;51.174;4.456;2023-03-05T17:30:38;7.50;99.90
25918;DHT22;13899;51.174;4.456;2023-03-05T17:33:04;7.40;99.90
25918;DHT22;13899;51.174;4.456;2023-03-05T17:35:30;7.40;99.90
25918;DHT22;13899;51.174;4.456;2023-03-05T17:37:57;7.20;99.90
25918;DHT22;13899;51.174;4.456;2023-03-05T17:40:24;7.00;99.90
25918;DHT22;13899;51.174;4.456;2023-03-05T17:42:52;7.20;99.90
25918;DHT22;13899;51.174;4.456;2023-03-05T17:45:19;7.60;99.90